createdAt,value
2018-12-05T00:00:21.374Z,10.10
2018-12-05T00:05:24.603Z,10.20
2018-12-05T00:10:27.838Z,10.00
2018-12-05T00:15:31.046Z,9.90
2018-12-05T00:20:34.255Z,10.00
2018-12-05T00:25:37.577Z,10.00
2018-12-05T00:30:40.795Z,9.80
2018-12-05T00:35:44.098Z,10.00
2018-12-05T00:40:47.310Z,9.90
2018-12-05T00:45:50.525Z,9.90
2018-12-05T00:50:53.858Z,9.90
2018-12-05T00:55:57.075Z,9.90
2018-12-05T01:01:00.466Z,9.90
2018-12-05T01:06:03.810Z,9.90
2018-12-05T01:11:07.086Z,9.90
2018-12-05T01:16:10.360Z,9.70
2018-12-05T01:21:13.539Z,9.90
2018-12-05T01:26:16.715Z,9.90
2018-12-05T01:31:20.247Z,9.70
2018-12-05T01:36:23.448Z,9.90
2018-12-05T01:41:27.719Z,9.80
2018-12-05T01:46:31.243Z,9.90
2018-12-05T01:51:34.462Z,9.80
2018-12-05T01:56:37.686Z,9.80
2018-12-05T02:01:40.897Z,9.60
2018-12-05T02:06:44.107Z,9.70
2018-12-05T02:11:47.323Z,9.70
2018-12-05T02:16:50.534Z,9.90
2018-12-05T02:21:53.747Z,9.90
2018-12-05T02:26:57.613Z,9.80
2018-12-05T02:32:00.872Z,9.50
2018-12-05T02:37:04.424Z,9.80
2018-12-05T02:42:07.653Z,9.70
2018-12-05T02:47:10.985Z,9.60
2018-12-05T02:52:14.323Z,9.60
2018-12-05T02:57:17.680Z,9.60
2018-12-05T03:02:20.915Z,9.60
2018-12-05T03:07:24.151Z,9.90
2018-12-05T03:12:27.382Z,9.60
2018-12-05T03:17:30.627Z,9.30
2018-12-05T03:22:33.872Z,9.50
2018-12-05T03:27:37.310Z,9.50
2018-12-05T03:32:41.054Z,9.50
2018-12-05T03:37:44.478Z,9.60
2018-12-05T03:42:47.903Z,9.60
2018-12-05T03:47:51.160Z,9.70
2018-12-05T03:52:54.474Z,9.50
2018-12-05T03:57:57.702Z,9.50
2018-12-05T04:03:00.942Z,9.60
2018-12-05T04:08:04.294Z,9.60
2018-12-05T04:13:07.530Z,9.60
2018-12-05T04:18:10.803Z,9.50
2018-12-05T04:23:14.984Z,9.40
2018-12-05T04:28:18.226Z,9.50
2018-12-05T04:33:21.471Z,9.40
2018-12-05T04:38:24.703Z,9.00
2018-12-05T04:43:27.950Z,9.10
2018-12-05T04:48:31.194Z,9.30
2018-12-05T04:53:34.436Z,9.00
2018-12-05T04:58:37.775Z,9.10
2018-12-05T05:03:41.059Z,9.40
2018-12-05T05:08:45.304Z,9.10
2018-12-05T05:13:48.578Z,9.30
2018-12-05T05:18:52.119Z,9.20
2018-12-05T05:23:55.373Z,9.30
2018-12-05T05:28:58.613Z,9.00
2018-12-05T05:34:01.870Z,9.10
2018-12-05T05:39:07.838Z,9.20
2018-12-05T05:44:11.445Z,9.00
2018-12-05T05:49:14.666Z,9.20
2018-12-05T05:54:18.491Z,9.10
2018-12-05T05:59:21.875Z,9.00
2018-12-05T06:04:25.122Z,9.00
2018-12-05T06:09:28.370Z,9.20
2018-12-05T06:14:31.618Z,8.70
2018-12-05T06:19:34.902Z,8.70
2018-12-05T06:24:38.502Z,8.90
2018-12-05T06:29:41.750Z,8.90
2018-12-05T06:34:45.031Z,8.70
2018-12-05T06:39:48.278Z,9.00
2018-12-05T06:44:51.523Z,9.00
2018-12-05T06:49:54.762Z,8.70
2018-12-05T06:54:58.006Z,8.60
2018-12-05T07:00:01.707Z,8.70
2018-12-05T07:05:05.823Z,8.90
2018-12-05T07:10:09.062Z,8.90
2018-12-05T07:15:12.406Z,8.70
2018-12-05T07:20:15.664Z,8.70
2018-12-05T07:25:18.922Z,8.70
2018-12-05T07:30:29.301Z,10.90
2018-12-05T07:35:27.510Z,10.50
2018-12-05T07:40:31.003Z,10.30
2018-12-05T07:45:34.257Z,10.00
2018-12-05T07:50:37.501Z,9.50
2018-12-05T07:55:40.753Z,9.60
2018-12-05T08:00:44.098Z,9.30
2018-12-05T08:05:47.458Z,9.10
2018-12-05T08:10:50.702Z,9.30
2018-12-05T08:15:53.961Z,9.20
2018-12-05T08:20:57.338Z,9.00
2018-12-05T08:26:00.619Z,9.20
2018-12-05T08:31:03.966Z,9.30
2018-12-05T08:36:07.433Z,9.20
2018-12-05T08:41:10.685Z,8.90
2018-12-05T08:46:13.942Z,8.90
2018-12-05T08:51:17.202Z,9.00
2018-12-05T08:56:20.442Z,8.90
2018-12-05T09:01:23.702Z,8.70
2018-12-05T09:06:26.958Z,9.00
2018-12-05T09:11:30.242Z,8.70
2018-12-05T09:16:33.490Z,8.70
2018-12-05T09:21:36.755Z,9.00
2018-12-05T09:26:40.130Z,8.70
2018-12-05T09:31:43.386Z,8.70
2018-12-05T09:36:47.111Z,8.90
2018-12-05T09:41:50.953Z,8.90
2018-12-05T09:46:54.211Z,8.70
2018-12-05T09:51:57.574Z,8.70
2018-12-05T09:57:01.730Z,8.70
2018-12-05T10:02:05.302Z,8.90
2018-12-05T10:07:08.562Z,8.70
2018-12-05T10:12:11.862Z,9.00
2018-12-05T10:17:17.291Z,9.10
2018-12-05T10:22:20.535Z,9.00
2018-12-05T10:27:23.856Z,9.00
2018-12-05T10:32:27.132Z,8.90
2018-12-05T10:37:30.474Z,9.00
2018-12-05T10:42:33.750Z,9.00
2018-12-05T10:47:37.003Z,9.00
2018-12-05T10:52:41.234Z,9.10
2018-12-05T10:57:44.514Z,9.30
2018-12-05T11:02:53.169Z,9.00
2018-12-05T11:08:01.957Z,9.10
2018-12-05T11:13:11.052Z,9.30
2018-12-05T11:18:19.670Z,9.30
2018-12-05T11:23:28.432Z,9.10
2018-12-05T11:28:32.589Z,9.20
2018-12-05T11:33:35.845Z,9.40
2018-12-05T11:38:39.110Z,9.60
2018-12-05T11:43:42.354Z,9.50
2018-12-05T11:48:46.048Z,9.60
2018-12-05T11:53:49.286Z,9.30
2018-12-05T11:58:52.550Z,9.30
2018-12-05T12:03:55.978Z,9.30
2018-12-05T12:08:59.236Z,9.60
2018-12-05T12:14:04.138Z,9.30
2018-12-05T12:19:07.391Z,9.30
2018-12-05T12:24:10.713Z,9.30
2018-12-05T12:29:14.209Z,9.60
2018-12-05T12:34:17.431Z,9.30
2018-12-05T12:39:20.674Z,9.60
2018-12-05T12:44:23.933Z,9.60
2018-12-05T12:49:27.367Z,9.60
2018-12-05T12:54:30.599Z,9.60
2018-12-05T12:59:34.246Z,9.60
2018-12-05T13:04:37.490Z,9.90
2018-12-05T13:09:40.927Z,9.70
2018-12-05T13:14:44.147Z,9.90
2018-12-05T13:19:47.579Z,9.70
2018-12-05T13:24:51.199Z,10.10
2018-12-05T13:29:54.434Z,9.90
2018-12-05T13:34:58.028Z,9.90
2018-12-05T13:40:01.449Z,9.90
2018-12-05T13:45:05.148Z,10.00
2018-12-05T13:50:08.734Z,9.90
2018-12-05T13:55:12.075Z,9.80
2018-12-05T14:00:15.389Z,9.70
2018-12-05T14:05:18.631Z,10.20
2018-12-05T14:10:21.886Z,10.30
2018-12-05T14:15:25.151Z,10.20
2018-12-05T14:20:28.418Z,10.00
2018-12-05T14:25:31.856Z,9.90
2018-12-05T14:30:35.638Z,10.10
2018-12-05T14:35:38.856Z,9.90
2018-12-05T14:40:42.082Z,9.80
2018-12-05T14:45:45.634Z,9.80
2018-12-05T14:50:48.850Z,9.80
2018-12-05T14:55:52.082Z,9.90
2018-12-05T15:00:55.494Z,9.90
2018-12-05T15:05:58.730Z,9.70
2018-12-05T15:11:02.126Z,9.90
2018-12-05T15:16:05.381Z,10.00
2018-12-05T15:21:08.688Z,9.70
2018-12-05T15:26:11.926Z,9.90
2018-12-05T15:31:15.214Z,9.80
2018-12-05T15:36:18.530Z,9.80
2018-12-05T15:41:21.750Z,9.90
2018-12-05T15:46:24.982Z,9.90
2018-12-05T15:51:28.238Z,9.80
2018-12-05T15:56:31.470Z,9.90
2018-12-05T16:01:34.706Z,9.70
2018-12-05T16:06:37.946Z,10.20
2018-12-05T16:11:41.203Z,10.20
2018-12-05T16:16:44.522Z,9.70
2018-12-05T16:21:47.829Z,9.90
2018-12-05T16:26:51.066Z,10.00
2018-12-05T16:31:54.288Z,9.90
2018-12-05T16:36:57.952Z,9.70
2018-12-05T16:42:01.292Z,10.20
2018-12-05T16:47:04.590Z,10.00
2018-12-05T16:52:07.811Z,9.70
2018-12-05T16:57:11.184Z,9.90
2018-12-05T17:02:14.623Z,9.80
2018-12-05T17:07:17.815Z,10.00
2018-12-05T17:12:21.034Z,9.60
2018-12-05T17:17:24.462Z,9.90
2018-12-05T17:22:27.679Z,10.60
2018-12-05T17:27:32.674Z,10.40
2018-12-05T17:32:36.284Z,10.20
2018-12-05T17:37:39.762Z,10.30
2018-12-05T17:42:43.087Z,10.00
2018-12-05T17:47:46.326Z,10.30
2018-12-05T17:52:49.785Z,10.20
2018-12-05T17:57:58.304Z,10.00
2018-12-05T18:03:01.885Z,10.10
2018-12-05T18:08:05.187Z,10.20
2018-12-05T18:13:08.418Z,10.20
2018-12-05T18:18:11.731Z,10.10
2018-12-05T18:23:14.991Z,10.20
2018-12-05T18:28:18.285Z,9.90
2018-12-05T18:33:21.531Z,10.50
2018-12-05T18:38:24.821Z,10.90
2018-12-05T18:43:28.146Z,10.70
2018-12-05T18:48:31.479Z,10.50
2018-12-05T18:53:34.754Z,10.50
2018-12-05T18:58:38.206Z,10.50
2018-12-05T19:03:41.538Z,10.30
2018-12-05T19:08:44.831Z,10.10
2018-12-05T19:15:01.987Z,10.20
2018-12-05T19:20:07.265Z,10.20
2018-12-05T19:25:10.919Z,10.20
2018-12-05T19:30:14.356Z,10.20
2018-12-05T19:35:17.562Z,10.20
2018-12-05T19:40:20.951Z,10.10
2018-12-05T19:45:24.839Z,10.90
2018-12-05T19:50:28.074Z,10.60
2018-12-05T19:55:33.654Z,10.30
2018-12-05T20:00:39.148Z,10.30
2018-12-05T20:05:42.459Z,10.20
2018-12-05T20:10:45.746Z,10.20
2018-12-05T20:25:53.254Z,10.20
2018-12-05T20:30:57.402Z,10.20
2018-12-05T20:36:00.678Z,10.20
2018-12-05T20:41:07.595Z,10.10
2018-12-05T20:46:10.930Z,10.30
2018-12-05T20:51:14.283Z,10.20
2018-12-05T20:56:17.562Z,10.20
2018-12-05T21:01:21.034Z,10.20
2018-12-05T21:06:24.307Z,10.10
2018-12-05T21:11:27.646Z,10.10
2018-12-05T21:16:30.910Z,10.20
2018-12-05T21:21:35.005Z,10.20
2018-12-05T21:26:40.925Z,10.30
2018-12-05T21:31:44.526Z,10.20
2018-12-05T21:36:48.558Z,10.20
2018-12-05T21:41:55.957Z,10.10
2018-12-05T21:47:00.312Z,10.10
2018-12-05T21:52:03.686Z,10.20
2018-12-05T21:57:08.288Z,10.30
2018-12-05T22:02:14.402Z,10.30
2018-12-05T22:07:17.646Z,9.90
2018-12-05T22:12:20.901Z,10.20
2018-12-05T22:17:24.154Z,10.30
2018-12-05T22:22:27.525Z,10.30
2018-12-05T22:27:30.764Z,10.00
2018-12-05T22:32:34.098Z,10.30
2018-12-05T22:37:37.349Z,10.30
2018-12-05T22:42:40.590Z,10.30
2018-12-05T22:47:43.852Z,10.20
2018-12-05T22:52:47.090Z,10.20
2018-12-05T22:57:50.323Z,10.20
2018-12-05T23:02:53.720Z,10.20
2018-12-05T23:07:56.942Z,10.20
2018-12-05T23:13:00.275Z,10.10
2018-12-05T23:18:03.598Z,10.20
2018-12-05T23:23:06.850Z,10.10
2018-12-05T23:28:54.686Z,10.10
2018-12-05T23:33:57.914Z,10.10
2018-12-05T23:39:01.216Z,10.20
2018-12-05T23:44:04.605Z,10.10
2018-12-05T23:49:07.826Z,10.00
2018-12-05T23:54:11.063Z,10.50
2018-12-05T23:59:14.274Z,10.30
